createdAt,value
2018-09-05T00:00:55.960Z,10.11
2018-09-05T00:03:23.675Z,10.11
2018-09-05T00:05:51.483Z,10.13
2018-09-05T00:08:19.250Z,10.16
2018-09-05T00:10:47.024Z,10.19
2018-09-05T00:13:14.776Z,10.21
2018-09-05T00:15:42.487Z,10.21
2018-09-05T00:18:10.172Z,10.24
2018-09-05T00:20:37.868Z,10.26
2018-09-05T00:23:05.589Z,10.28
2018-09-05T00:25:33.429Z,10.29
2018-09-05T00:28:01.100Z,10.29
2018-09-05T00:30:28.800Z,10.31
2018-09-05T00:32:56.532Z,10.34
2018-09-05T00:35:24.257Z,10.36
2018-09-05T00:37:51.943Z,10.38
2018-09-05T00:40:19.872Z,10.41
2018-09-05T00:42:47.984Z,10.40
2018-09-05T00:45:15.701Z,10.40
2018-09-05T00:47:43.498Z,10.40
2018-09-05T00:50:11.188Z,10.40
2018-09-05T00:52:38.940Z,10.40
2018-09-05T00:55:06.677Z,10.45
2018-09-05T00:57:34.389Z,10.46
2018-09-05T01:00:02.198Z,10.45
2018-09-05T01:02:30.005Z,10.42
2018-09-05T01:04:57.744Z,10.40
2018-09-05T01:07:26.750Z,10.37
2018-09-05T01:09:54.486Z,10.31
2018-09-05T01:12:23.160Z,10.25
2018-09-05T01:14:52.429Z,10.21
2018-09-05T01:17:20.543Z,10.14
2018-09-05T01:19:48.242Z,10.03
2018-09-05T01:22:15.932Z,9.13
2018-09-05T01:24:43.657Z,9.82
2018-09-05T01:27:11.869Z,9.70
2018-09-05T01:29:40.296Z,9.63
2018-09-05T01:32:09.107Z,9.52
2018-09-05T01:34:37.280Z,9.46
2018-09-05T01:37:05.104Z,9.35
2018-09-05T01:39:32.796Z,9.26
2018-09-05T01:42:00.500Z,9.15
2018-09-05T01:44:28.180Z,9.03
2018-09-05T01:46:55.851Z,8.95
2018-09-05T01:49:23.644Z,8.85
2018-09-05T01:51:55.429Z,8.79
2018-09-05T01:54:23.169Z,8.66
2018-09-05T01:56:51.279Z,8.60
2018-09-05T01:59:18.969Z,8.54
2018-09-05T02:01:47.292Z,8.45
2018-09-05T02:04:15.008Z,8.38
2018-09-05T02:06:42.737Z,8.30
2018-09-05T02:09:12.088Z,8.27
2018-09-05T02:11:39.796Z,8.24
2018-09-05T02:14:07.483Z,8.18
2018-09-05T02:16:35.300Z,8.10
2018-09-05T02:19:09.612Z,7.99
2018-09-05T02:21:37.393Z,7.92
2018-09-05T02:24:05.261Z,7.82
2018-09-05T02:26:33.080Z,7.75
2018-09-05T02:29:00.848Z,7.69
2018-09-05T02:31:28.900Z,7.65
2018-09-05T02:33:56.615Z,7.63
2018-09-05T02:36:24.339Z,7.60
2018-09-05T02:38:52.071Z,7.54
2018-09-05T02:41:19.845Z,7.47
2018-09-05T02:43:53.008Z,7.41
2018-09-05T02:46:20.737Z,7.29
2018-09-05T02:48:48.423Z,7.23
2018-09-05T02:51:16.144Z,7.17
2018-09-05T02:53:43.828Z,7.12
2018-09-05T02:56:11.505Z,7.03
2018-09-05T02:58:39.195Z,6.97
2018-09-05T03:01:06.878Z,6.93
2018-09-05T03:03:34.548Z,6.88
2018-09-05T03:06:02.251Z,6.84
2018-09-05T03:08:29.941Z,6.82
2018-09-05T03:10:57.672Z,6.76
2018-09-05T03:13:25.371Z,6.71
2018-09-05T03:15:53.060Z,6.67
2018-09-05T03:18:20.778Z,6.63
2018-09-05T03:20:48.479Z,6.57
2018-09-05T03:23:16.194Z,6.52
2018-09-05T03:25:43.916Z,6.48
2018-09-05T03:28:11.620Z,6.46
2018-09-05T03:30:39.944Z,6.42
2018-09-05T03:33:07.925Z,6.40
2018-09-05T03:35:35.708Z,6.35
2018-09-05T03:38:03.624Z,6.32
2018-09-05T03:40:31.309Z,6.28
2018-09-05T03:42:59.074Z,6.26
2018-09-05T03:45:26.794Z,6.26
2018-09-05T03:47:54.477Z,6.24
2018-09-05T03:50:22.177Z,6.25
2018-09-05T03:52:49.859Z,6.26
2018-09-05T03:55:17.576Z,6.27
2018-09-05T03:57:45.248Z,6.26
2018-09-05T04:00:13.153Z,6.30
2018-09-05T04:02:40.842Z,6.31
2018-09-05T04:05:08.671Z,6.30
2018-09-05T04:07:36.379Z,6.29
2018-09-05T04:10:04.184Z,6.28
2018-09-05T04:12:36.376Z,6.31
2018-09-05T04:15:04.488Z,6.34
2018-09-05T04:17:32.173Z,6.38
2018-09-05T04:19:59.895Z,6.43
2018-09-05T04:22:27.620Z,6.48
2018-09-05T04:24:55.292Z,6.54
2018-09-05T04:27:23.041Z,6.60
2018-09-05T04:29:50.734Z,6.66
2018-09-05T04:32:18.436Z,6.75
2018-09-05T04:34:46.153Z,6.84
2018-09-05T04:37:13.842Z,6.97
2018-09-05T04:39:41.564Z,7.06
2018-09-05T04:42:09.272Z,7.18
2018-09-05T04:44:36.959Z,7.34
2018-09-05T04:47:04.664Z,7.53
2018-09-05T04:49:32.406Z,7.76
2018-09-05T04:52:00.118Z,7.99
2018-09-05T04:54:27.797Z,8.23
2018-09-05T04:56:55.482Z,8.53
2018-09-05T04:59:23.220Z,8.91
2018-09-05T05:01:50.909Z,9.18
2018-09-05T05:04:18.605Z,9.56
2018-09-05T05:06:46.350Z,9.88
2018-09-05T05:09:14.017Z,10.17
2018-09-05T05:11:41.716Z,10.53
2018-09-05T05:14:09.997Z,10.92
2018-09-05T05:16:37.682Z,11.21
2018-09-05T05:19:05.452Z,11.51
2018-09-05T05:21:33.224Z,11.78
2018-09-05T05:24:00.937Z,12.10
2018-09-05T05:26:28.948Z,12.42
2018-09-05T05:28:56.721Z,12.66
2018-09-05T05:31:24.489Z,13.02
2018-09-05T05:33:52.193Z,13.20
2018-09-05T05:36:19.942Z,13.50
2018-09-05T05:38:47.660Z,13.71
2018-09-05T05:41:15.624Z,13.95
2018-09-05T05:43:43.450Z,14.17
2018-09-05T05:46:11.167Z,14.02
2018-09-05T05:48:38.988Z,14.02
2018-09-05T05:51:06.923Z,14.29
2018-09-05T05:53:34.718Z,14.37
2018-09-05T05:56:02.531Z,14.59
2018-09-05T05:58:30.532Z,14.61
2018-09-05T06:00:58.309Z,14.92
2018-09-05T06:03:26.227Z,14.42
2018-09-05T06:05:54.098Z,15.38
2018-09-05T06:08:21.863Z,15.40
2018-09-05T06:10:49.569Z,15.39
2018-09-05T06:13:17.249Z,15.41
2018-09-05T06:15:44.960Z,15.22
2018-09-05T06:18:12.755Z,15.05
2018-09-05T06:20:40.436Z,15.07
2018-09-05T06:23:08.136Z,15.09
2018-09-05T06:25:35.903Z,15.34
2018-09-05T06:28:03.608Z,15.47
2018-09-05T06:30:31.700Z,15.51
2018-09-05T06:32:59.348Z,15.73
2018-09-05T06:35:27.117Z,16.08
2018-09-05T06:37:54.803Z,16.39
2018-09-05T06:40:22.644Z,16.35
2018-09-05T06:42:50.319Z,16.41
2018-09-05T06:45:18.017Z,16.40
2018-09-05T06:47:45.714Z,16.55
2018-09-05T06:50:13.426Z,16.30
2018-09-05T06:52:41.164Z,16.36
2018-09-05T06:55:08.908Z,16.66
2018-09-05T06:57:36.693Z,16.56
2018-09-05T07:00:54.620Z,16.80
2018-09-05T07:03:22.890Z,16.89
2018-09-05T07:05:50.666Z,17.15
2018-09-05T07:08:18.364Z,17.19
2018-09-05T07:10:46.159Z,17.18
2018-09-05T07:13:13.880Z,17.18
2018-09-05T07:15:41.581Z,17.22
2018-09-05T07:18:09.332Z,17.34
2018-09-05T07:20:37.084Z,17.51
2018-09-05T07:23:04.832Z,17.51
2018-09-05T07:25:32.532Z,17.28
2018-09-05T07:28:00.269Z,17.51
2018-09-05T07:30:28.083Z,17.64
2018-09-05T07:32:55.699Z,17.72
2018-09-05T07:35:23.397Z,17.79
2018-09-05T07:37:51.155Z,17.97
2018-09-05T07:40:18.987Z,17.85
2018-09-05T07:42:46.659Z,17.88
2018-09-05T07:45:14.459Z,17.84
2018-09-05T07:47:42.178Z,17.89
2018-09-05T07:50:09.903Z,18.31
2018-09-05T07:52:37.659Z,18.18
2018-09-05T07:55:05.548Z,18.17
2018-09-05T07:57:33.268Z,18.10
2018-09-05T08:00:01.002Z,18.03
2018-09-05T08:02:28.708Z,18.23
2018-09-05T08:04:56.440Z,18.41
2018-09-05T08:07:24.176Z,18.30
2018-09-05T08:09:51.851Z,18.54
2018-09-05T08:12:19.567Z,18.68
2018-09-05T08:14:47.308Z,18.78
2018-09-05T08:17:15.008Z,18.72
2018-09-05T08:19:42.720Z,18.82
2018-09-05T08:22:10.449Z,19.11
2018-09-05T08:24:38.386Z,19.43
2018-09-05T08:27:06.108Z,19.63
2018-09-05T08:29:33.800Z,19.28
2018-09-05T08:32:01.552Z,19.09
2018-09-05T08:34:29.308Z,19.28
2018-09-05T08:36:57.266Z,19.44
2018-09-05T08:39:24.784Z,19.04
2018-09-05T08:41:52.581Z,18.75
2018-09-05T08:44:20.481Z,18.82
2018-09-05T08:46:48.114Z,19.33
2018-09-05T08:49:15.833Z,19.21
2018-09-05T08:51:43.516Z,19.44
2018-09-05T08:54:11.236Z,19.62
2018-09-05T08:56:38.974Z,19.55
2018-09-05T08:59:06.749Z,19.63
2018-09-05T09:01:35.307Z,19.49
2018-09-05T09:04:03.025Z,19.55
2018-09-05T09:06:30.769Z,19.54
2018-09-05T09:08:58.456Z,19.44
2018-09-05T09:11:26.233Z,19.53
2018-09-05T09:13:53.943Z,19.78
2018-09-05T09:16:21.653Z,20.03
2018-09-05T09:18:49.471Z,19.95
2018-09-05T09:21:17.243Z,19.93
2018-09-05T09:23:44.982Z,20.04
2018-09-05T09:26:12.691Z,20.04
2018-09-05T09:28:40.446Z,19.85
2018-09-05T09:31:08.172Z,19.81
2018-09-05T09:33:35.895Z,20.13
2018-09-05T09:36:03.659Z,19.99
2018-09-05T09:38:31.386Z,20.13
2018-09-05T09:40:59.080Z,20.33
2018-09-05T09:43:26.829Z,20.33
2018-09-05T09:45:54.537Z,20.30
2018-09-05T09:48:22.239Z,20.62
2018-09-05T09:50:50.006Z,20.39
2018-09-05T09:53:17.699Z,20.13
2018-09-05T09:55:45.449Z,20.33
2018-09-05T09:58:13.208Z,20.65
2018-09-05T10:00:46.550Z,20.94
2018-09-05T10:03:19.883Z,20.62
2018-09-05T10:05:53.113Z,20.63
2018-09-05T10:08:26.465Z,20.52
2018-09-05T10:10:59.769Z,20.38
2018-09-05T10:13:33.064Z,20.33
2018-09-05T10:16:06.464Z,20.37
2018-09-05T10:18:37.195Z,20.73
2018-09-05T10:21:04.973Z,20.84
2018-09-05T10:23:32.735Z,21.05
2018-09-05T10:26:00.515Z,21.45
2018-09-05T10:28:28.218Z,21.23
2018-09-05T10:30:55.939Z,20.88
2018-09-05T10:33:23.652Z,20.84
2018-09-05T10:35:51.421Z,20.36
2018-09-05T10:38:19.176Z,20.49
2018-09-05T10:40:46.889Z,20.45
2018-09-05T10:43:14.603Z,20.53
2018-09-05T10:45:42.372Z,20.72
2018-09-05T10:48:10.527Z,20.90
2018-09-05T10:50:38.264Z,20.62
2018-09-05T10:53:06.432Z,20.45
2018-09-05T10:55:34.164Z,20.60
2018-09-05T10:58:01.889Z,20.85
2018-09-05T11:00:29.672Z,21.00
2018-09-05T11:02:57.372Z,20.42
2018-09-05T11:05:25.116Z,20.08
2018-09-05T11:07:52.850Z,20.02
2018-09-05T11:10:20.677Z,20.27
2018-09-05T11:12:48.392Z,20.64
2018-09-05T11:15:16.152Z,20.67
2018-09-05T11:17:43.889Z,21.05
2018-09-05T11:20:12.232Z,20.90
2018-09-05T11:22:40.340Z,21.04
2018-09-05T11:25:08.079Z,21.03
2018-09-05T11:27:35.923Z,20.91
2018-09-05T11:30:03.807Z,21.08
2018-09-05T11:32:31.525Z,21.18
2018-09-05T11:34:59.321Z,20.93
2018-09-05T11:37:27.239Z,20.78
2018-09-05T11:39:54.975Z,20.73
2018-09-05T11:42:22.688Z,20.62
2018-09-05T11:44:50.445Z,20.83
2018-09-05T11:47:18.174Z,20.43
2018-09-05T11:49:45.901Z,20.35
2018-09-05T11:52:13.667Z,20.44
2018-09-05T11:54:41.397Z,20.61
2018-09-05T11:57:09.165Z,20.83
2018-09-05T11:59:37.038Z,20.65
2018-09-05T12:02:04.975Z,20.57
2018-09-05T12:04:32.924Z,20.61
2018-09-05T12:07:00.756Z,20.69
2018-09-05T12:09:28.461Z,20.89
2018-09-05T12:11:56.234Z,21.12
2018-09-05T12:14:24.037Z,20.99
2018-09-05T12:16:51.847Z,20.46
2018-09-05T12:19:19.591Z,20.41
2018-09-05T12:21:47.292Z,20.62
2018-09-05T12:24:15.053Z,20.51
2018-09-05T12:26:42.769Z,20.62
2018-09-05T12:29:11.996Z,20.41
2018-09-05T12:31:40.218Z,20.35
2018-09-05T12:34:07.942Z,20.20
2018-09-05T12:36:35.803Z,20.41
2018-09-05T12:39:05.452Z,20.64
2018-09-05T12:41:33.148Z,20.33
2018-09-05T12:44:00.952Z,20.20
2018-09-05T12:46:28.668Z,20.28
2018-09-05T12:48:56.384Z,20.26
2018-09-05T12:51:24.245Z,20.30
2018-09-05T12:53:51.988Z,20.37
2018-09-05T12:56:19.700Z,20.27
2018-09-05T12:58:47.464Z,20.14
2018-09-05T13:01:15.297Z,20.01
2018-09-05T13:03:43.131Z,19.63
2018-09-05T13:06:10.849Z,19.51
2018-09-05T13:08:38.571Z,19.27
2018-09-05T13:11:06.304Z,19.27
2018-09-05T13:13:40.868Z,19.04
2018-09-05T13:16:08.572Z,18.87
2018-09-05T13:18:36.267Z,18.70
2018-09-05T13:21:04.126Z,18.53
2018-09-05T13:23:31.883Z,18.33
2018-09-05T13:25:59.627Z,18.16
2018-09-05T13:28:27.329Z,18.00
2018-09-05T13:30:55.034Z,18.05
2018-09-05T13:33:22.770Z,17.93
2018-09-05T13:35:50.767Z,17.80
2018-09-05T13:38:18.471Z,17.58
2018-09-05T13:40:46.277Z,17.35
2018-09-05T13:43:14.017Z,17.25
2018-09-05T13:45:41.952Z,17.39
2018-09-05T13:48:09.732Z,17.34
2018-09-05T13:50:37.517Z,17.25
2018-09-05T13:53:05.649Z,17.16
2018-09-05T13:55:33.389Z,17.21
2018-09-05T13:58:01.111Z,17.17
2018-09-05T14:00:28.994Z,17.23
2018-09-05T14:02:56.715Z,17.25
2018-09-05T14:05:24.480Z,17.30
2018-09-05T14:07:52.252Z,17.19
2018-09-05T14:10:19.972Z,17.18
2018-09-05T14:12:47.755Z,17.15
2018-09-05T14:15:15.465Z,17.07
2018-09-05T14:17:43.293Z,17.02
2018-09-05T14:20:11.120Z,17.02
2018-09-05T14:22:38.873Z,17.00
2018-09-05T14:25:06.740Z,17.07
2018-09-05T14:27:34.546Z,17.10
2018-09-05T14:30:02.352Z,17.15
2018-09-05T14:32:30.091Z,16.95
2018-09-05T14:34:57.816Z,16.88
2018-09-05T14:37:25.588Z,16.72
2018-09-05T14:39:53.355Z,16.71
2018-09-05T14:42:21.108Z,16.60
2018-09-05T14:44:48.816Z,16.57
2018-09-05T14:47:16.535Z,16.51
2018-09-05T14:49:44.276Z,16.37
2018-09-05T14:52:12.030Z,16.27
2018-09-05T14:54:39.769Z,16.13
2018-09-05T14:57:07.585Z,16.06
2018-09-05T14:59:35.310Z,15.91
2018-09-05T15:02:03.181Z,15.85
2018-09-05T15:04:30.886Z,15.74
2018-09-05T15:06:58.637Z,15.66
2018-09-05T15:09:26.392Z,15.60
2018-09-05T15:11:54.194Z,15.54
2018-09-05T15:14:21.869Z,15.56
2018-09-05T15:16:49.578Z,15.47
2018-09-05T15:19:17.293Z,15.36
2018-09-05T15:21:45.133Z,15.24
2018-09-05T15:24:12.892Z,15.23
2018-09-05T15:26:40.629Z,15.19
2018-09-05T15:29:08.378Z,15.13
2018-09-05T15:31:36.080Z,15.00
2018-09-05T15:34:03.797Z,14.95
2018-09-05T15:36:31.524Z,14.90
2018-09-05T15:38:59.255Z,14.82
2018-09-05T15:41:26.984Z,14.73
2018-09-05T15:43:54.740Z,14.65
2018-09-05T15:46:22.465Z,14.59
2018-09-05T15:48:50.162Z,14.54
2018-09-05T15:51:17.861Z,14.47
2018-09-05T15:53:45.547Z,14.44
2018-09-05T15:56:13.276Z,14.43
2018-09-05T15:58:41.017Z,14.41
2018-09-05T16:01:08.696Z,14.40
2018-09-05T16:03:36.428Z,14.36
2018-09-05T16:06:04.270Z,14.33
2018-09-05T16:08:32.087Z,14.31
2018-09-05T16:10:59.804Z,14.29
2018-09-05T16:13:27.474Z,14.25
2018-09-05T16:15:55.171Z,14.22
2018-09-05T16:18:23.055Z,14.12
2018-09-05T16:20:50.779Z,14.12
2018-09-05T16:23:18.466Z,14.10
2018-09-05T16:25:46.219Z,14.09
2018-09-05T16:28:13.923Z,14.08
2018-09-05T16:30:41.767Z,14.02
2018-09-05T16:33:09.481Z,13.96
2018-09-05T16:35:37.195Z,13.92
2018-09-05T16:38:05.024Z,13.87
2018-09-05T16:40:32.721Z,13.86
2018-09-05T16:43:00.412Z,13.82
2018-09-05T16:45:28.173Z,13.76
2018-09-05T16:47:55.864Z,13.67
2018-09-05T16:50:24.069Z,13.57
2018-09-05T16:52:51.756Z,13.45
2018-09-05T16:55:19.470Z,13.39
2018-09-05T16:57:47.167Z,13.36
2018-09-05T17:00:14.837Z,13.25
2018-09-05T17:02:42.591Z,13.19
2018-09-05T17:05:10.293Z,13.13
2018-09-05T17:07:38.004Z,13.09
2018-09-05T17:10:05.895Z,13.04
2018-09-05T17:12:33.576Z,12.98
2018-09-05T17:15:01.248Z,12.83
2018-09-05T17:17:28.969Z,12.72
2018-09-05T17:19:56.746Z,12.68
2018-09-05T17:22:24.484Z,12.59
2018-09-05T17:24:52.301Z,12.47
2018-09-05T17:27:20.135Z,12.41
2018-09-05T17:29:47.880Z,12.33
2018-09-05T17:32:15.553Z,12.23
2018-09-05T17:34:43.346Z,12.16
2018-09-05T17:37:11.195Z,12.07
2018-09-05T17:39:38.878Z,11.99
2018-09-05T17:42:06.580Z,11.93
2018-09-05T17:44:34.314Z,11.85
2018-09-05T17:47:02.006Z,11.81
2018-09-05T17:49:29.725Z,11.72
2018-09-05T17:51:57.465Z,11.61
2018-09-05T17:54:25.252Z,11.55
2018-09-05T17:56:52.961Z,11.50
2018-09-05T17:59:20.708Z,11.41
2018-09-05T18:01:48.508Z,11.31
2018-09-05T18:04:16.189Z,11.23
2018-09-05T18:06:43.888Z,11.15
2018-09-05T18:09:11.906Z,11.08
2018-09-05T18:11:39.611Z,11.01
2018-09-05T18:14:07.352Z,10.92
2018-09-05T18:16:35.057Z,10.80
2018-09-05T18:19:02.911Z,10.66
2018-09-05T18:21:30.690Z,10.53
2018-09-05T18:23:58.467Z,10.41
2018-09-05T18:26:26.211Z,10.34
2018-09-05T18:28:53.904Z,10.29
2018-09-05T18:31:21.635Z,10.22
2018-09-05T18:33:49.443Z,10.11
2018-09-05T18:36:17.117Z,10.02
2018-09-05T18:38:44.848Z,9.90
2018-09-05T18:41:12.640Z,9.83
2018-09-05T18:43:40.401Z,9.74
2018-09-05T18:46:08.192Z,9.61
2018-09-05T18:48:35.896Z,9.52
2018-09-05T18:51:03.723Z,9.42
2018-09-05T18:53:31.479Z,9.35
2018-09-05T18:55:59.267Z,9.28
2018-09-05T18:58:26.972Z,9.19
2018-09-05T19:00:54.882Z,9.16
2018-09-05T19:03:22.649Z,9.07
2018-09-05T19:05:50.444Z,8.97
2018-09-05T19:08:18.301Z,8.94
2018-09-05T19:10:46.017Z,8.89
2018-09-05T19:13:13.716Z,8.86
2018-09-05T19:15:41.451Z,8.76
2018-09-05T19:18:09.151Z,8.66
2018-09-05T19:20:36.931Z,8.53
2018-09-05T19:23:04.688Z,8.40
2018-09-05T19:25:32.379Z,8.30
2018-09-05T19:28:00.068Z,8.26
2018-09-05T19:30:27.798Z,8.24
2018-09-05T19:32:55.473Z,8.23
2018-09-05T19:35:23.185Z,8.18
2018-09-05T19:37:50.991Z,8.14
2018-09-05T19:40:18.663Z,8.09
2018-09-05T19:42:46.375Z,8.04
2018-09-05T19:45:14.076Z,7.99
2018-09-05T19:47:42.684Z,7.90
2018-09-05T19:50:10.415Z,7.83
2018-09-05T19:52:38.142Z,7.73
2018-09-05T19:55:05.845Z,7.64
2018-09-05T19:57:33.530Z,7.56
2018-09-05T20:00:01.256Z,7.51
2018-09-05T20:02:29.015Z,7.48
2018-09-05T20:04:56.759Z,7.39
2018-09-05T20:07:24.535Z,7.31
2018-09-05T20:09:52.256Z,7.23
2018-09-05T20:12:19.996Z,7.15
2018-09-05T20:14:47.680Z,7.11
2018-09-05T20:17:15.391Z,7.02
2018-09-05T20:19:43.138Z,6.97
2018-09-05T20:22:11.407Z,6.95
2018-09-05T20:24:39.223Z,6.94
2018-09-05T20:27:07.349Z,6.90
2018-09-05T20:29:35.168Z,6.84
2018-09-05T20:32:02.913Z,6.78
2018-09-05T20:34:30.612Z,6.70
2018-09-05T20:36:58.392Z,6.62
2018-09-05T20:39:26.097Z,6.54
2018-09-05T20:41:54.014Z,6.52
2018-09-05T20:44:21.698Z,6.50
2018-09-05T20:46:49.404Z,6.46
2018-09-05T20:49:17.153Z,6.46
2018-09-05T20:51:44.868Z,6.45
2018-09-05T20:54:12.600Z,6.43
2018-09-05T20:56:40.288Z,6.41
2018-09-05T20:59:08.039Z,6.43
2018-09-05T21:01:35.717Z,6.49
2018-09-05T21:04:03.427Z,6.60
2018-09-05T21:06:31.153Z,6.65
2018-09-05T21:08:58.871Z,6.65
2018-09-05T21:11:26.573Z,6.63
2018-09-05T21:13:54.285Z,6.51
2018-09-05T21:16:22.119Z,6.41
2018-09-05T21:18:49.825Z,6.35
2018-09-05T21:21:17.524Z,6.34
2018-09-05T21:23:45.263Z,6.32
2018-09-05T21:26:12.939Z,6.28
2018-09-05T21:28:40.639Z,6.17
2018-09-05T21:31:08.360Z,6.08
2018-09-05T21:33:36.029Z,6.01
2018-09-05T21:36:03.919Z,5.94
2018-09-05T21:38:31.594Z,5.89
2018-09-05T21:40:59.284Z,5.85
2018-09-05T21:43:27.056Z,5.85
2018-09-05T21:45:54.785Z,5.84
2018-09-05T21:48:22.551Z,5.80
2018-09-05T21:50:50.308Z,5.74
2018-09-05T21:53:18.020Z,5.69
2018-09-05T21:55:45.692Z,5.65
2018-09-05T21:58:13.395Z,5.58
2018-09-05T22:00:41.190Z,5.53
2018-09-05T22:03:08.860Z,5.47
2018-09-05T22:05:36.530Z,5.41
2018-09-05T22:08:04.251Z,5.38
2018-09-05T22:10:31.939Z,5.37
2018-09-05T22:12:59.620Z,5.34
2018-09-05T22:15:32.149Z,5.32
2018-09-05T22:17:59.812Z,5.31
2018-09-05T22:20:27.495Z,5.31
2018-09-05T22:22:55.184Z,5.31
2018-09-05T22:25:22.856Z,5.29
2018-09-05T22:27:50.536Z,5.28
2018-09-05T22:30:18.257Z,5.28
2018-09-05T22:32:45.948Z,5.27
2018-09-05T22:35:13.669Z,5.26
2018-09-05T22:37:41.424Z,5.24
2018-09-05T22:40:09.096Z,5.23
2018-09-05T22:42:42.053Z,5.21
2018-09-05T22:45:21.112Z,5.21
2018-09-05T22:48:09.420Z,5.20
2018-09-05T22:52:05.416Z,5.18
2018-09-05T22:55:52.804Z,5.16
2018-09-05T22:58:36.627Z,5.12
2018-09-05T23:01:25.173Z,5.13
2018-09-05T23:05:05.003Z,5.11
2018-09-05T23:07:45.353Z,5.06
2018-09-05T23:10:24.403Z,5.06
2018-09-05T23:13:03.360Z,5.08
2018-09-05T23:15:42.329Z,5.07
2018-09-05T23:18:21.317Z,5.06
2018-09-05T23:21:01.337Z,5.08
2018-09-05T23:23:40.447Z,5.08
2018-09-05T23:26:08.591Z,5.06
2018-09-05T23:28:36.888Z,5.08
2018-09-05T23:31:04.668Z,5.08
2018-09-05T23:33:32.462Z,5.09
2018-09-05T23:36:00.140Z,5.06
2018-09-05T23:38:27.897Z,5.04
2018-09-05T23:40:55.581Z,5.03
2018-09-05T23:43:23.244Z,5.03
2018-09-05T23:45:51.030Z,5.03
2018-09-05T23:48:18.713Z,5.01
2018-09-05T23:50:46.396Z,4.99
2018-09-05T23:53:14.094Z,4.98
2018-09-05T23:55:41.776Z,4.97
2018-09-05T23:58:09.491Z,4.95
